Time;durP1;ratioP1;P1;durP2;ratioP2;P2;SDS_P1;SDS_P2;PMS_P1;PMS_P2;Temp;Humidity;BMP_temperature;BMP_pressure;BME280_temperature;BME280_humidity;BME280_pressure;Samples;Min_cycle;Max_cycle;Signal;HPM_P1;HPM_P2
2023/08/08 00:00:03;;;;;;;;;;;;;;;9.56;55.75;95543.44;4973157;28;19928;-69
2023/08/08 00:02:28;;;;;;;;;;;;;;;9.59;55.55;95545.78;4972473;28;19922;-70
2023/08/08 00:04:53;;;;;;;;;;;;;;;9.54;55.43;95545.47;4971931;28;20000;-71
2023/08/08 00:07:19;;;;;;;;;;;;;;;9.58;55.18;95544.13;4973856;28;19921;-71
2023/08/08 00:09:44;;;;;;;;;;;;;;;9.46;55.40;95541.00;4966466;28;20419;-71
2023/08/08 00:12:09;;;;;;;;;;;;;;;9.46;55.16;95545.50;4977541;28;20343;-70
2023/08/08 00:14:34;;;;;;;;;;;;;;;9.55;54.68;95547.13;4973910;28;19996;-71
2023/08/08 00:16:59;;;;;;;;;;;;;;;9.65;54.81;95543.44;4978688;28;19980;-71
2023/08/08 00:19:25;;;;;;;;;;;;;;;9.70;54.35;95536.56;4970310;28;19933;-69
2023/08/08 00:21:50;;;;;;;;;;;;;;;9.71;54.25;95527.63;4974701;28;19922;-70
2023/08/08 00:24:15;;;;;;;;;;;;;;;9.84;54.13;95531.53;4982461;28;20479;-71
2023/08/08 00:26:40;;;;;;;;;;;;;;;9.96;53.63;95519.47;4973299;28;19969;-71
2023/08/08 00:29:06;;;;;;;;;;;;;;;10.00;53.81;95524.44;4971520;28;19952;-71
2023/08/08 00:31:31;;;;;;;;;;;;;;;10.03;53.73;95527.56;4975629;28;19964;-71
2023/08/08 00:33:56;;;;;;;;;;;;;;;9.97;53.59;95525.63;4980141;28;20598;-72
2023/08/08 00:36:22;;;;;;;;;;;;;;;9.95;52.50;95527.63;4985256;28;19925;-71
2023/08/08 00:38:48;;;;;;;;;;;;;;;9.88;53.12;95526.66;4979730;28;20004;-70
2023/08/08 00:41:13;;;;;;;;;;;;;;;9.85;53.32;95525.19;4983008;28;19955;-71
2023/08/08 00:43:38;;;;;;;;;;;;;;;9.74;52.06;95518.47;4983025;28;20367;-71
2023/08/08 00:46:04;;;;;;;;;;;;;;;9.69;52.79;95518.97;4981802;28;20494;-70
2023/08/08 00:48:29;;;;;;;;;;;;;;;9.71;52.71;95513.47;4985136;28;20447;-71
2023/08/08 00:50:55;;;;;;;;;;;;;;;9.77;53.21;95517.28;4980614;28;19992;-70
2023/08/08 00:53:22;;;;;;;;;;;;;;;9.72;52.54;95508.00;4982830;28;19996;-71
2023/08/08 00:55:47;;;;;;;;;;;;;;;9.79;52.96;95507.31;4983788;28;20565;-71
2023/08/08 00:58:12;;;;;;;;;;;;;;;9.75;53.24;95506.81;4982153;28;19922;-72
2023/08/08 01:00:38;;;;;;;;;;;;;;;9.82;54.26;95510.44;4983155;28;20405;-70
2023/08/08 01:03:03;;;;;;;;;;;;;;;9.98;54.00;95508.66;4961602;23;20029;-71
2023/08/08 01:05:29;;;;;;;;;;;;;;;9.99;53.37;95512.97;4921874;28;20325;-69
2023/08/08 01:08:04;;;;;;;;;;;;;;;9.98;53.92;95512.16;4925999;28;19923;-69
2023/08/08 01:10:29;;;;;;;;;;;;;;;10.01;54.27;95510.97;4921582;29;20555;-68
2023/08/08 01:13:02;;;;;;;;;;;;;;;10.06;54.05;95507.78;4919882;29;19927;-68
2023/08/08 01:15:28;;;;;;;;;;;;;;;10.05;53.87;95496.34;4919695;29;20419;-70
2023/08/08 01:17:53;;;;;;;;;;;;;;;9.98;54.02;95498.03;4918827;29;19925;-69
2023/08/08 01:20:18;;;;;;;;;;;;;;;10.01;53.81;95494.19;4921750;29;19941;-69
2023/08/08 01:22:53;;;;;;;;;;;;;;;10.06;53.90;95498.00;4919944;29;19923;-69
2023/08/08 01:25:18;;;;;;;;;;;;;;;10.09;53.12;95494.16;4915073;29;19926;-68
2023/08/08 01:27:44;;;;;;;;;;;;;;;10.06;52.58;95498.00;4922341;29;19922;-70
2023/08/08 01:30:09;;;;;;;;;;;;;;;10.07;52.99;95494.31;4921171;28;20419;-68
2023/08/08 01:32:34;;;;;;;;;;;;;;;10.03;52.87;95487.66;4920158;29;20383;-70
2023/08/08 01:35:00;;;;;;;;;;;;;;;9.95;52.81;95487.72;4919494;29;20066;-69
2023/08/08 01:37:41;;;;;;;;;;;;;;;9.78;52.33;95490.50;4918152;29;20392;-69
2023/08/08 01:40:07;;;;;;;;;;;;;;;9.87;54.09;95488.63;4913840;29;19970;-69
2023/08/08 01:42:32;;;;;;;;;;;;;;;9.97;54.05;95489.22;4926685;28;19923;-70
2023/08/08 01:44:57;;;;;;;;;;;;;;;10.10;53.50;95482.53;4914715;29;20208;-69
2023/08/08 01:47:22;;;;;;;;;;;;;;;10.11;53.33;95476.19;4919820;29;19962;-70
2023/08/08 01:49:48;;;;;;;;;;;;;;;10.21;53.28;95479.41;4923904;29;19934;-68
2023/08/08 01:52:13;;;;;;;;;;;;;;;10.20;52.99;95483.09;4921699;29;19927;-67
2023/08/08 01:54:39;;;;;;;;;;;;;;;10.15;53.22;95482.81;4942349;28;20002;-69
2023/08/08 01:57:04;;;;;;;;;;;;;;;10.23;53.67;95476.56;4943576;28;20018;-70
2023/08/08 01:59:29;;;;;;;;;;;;;;;10.28;53.29;95474.22;4944780;28;20025;-70
2023/08/08 02:01:55;;;;;;;;;;;;;;;10.39;53.45;95474.78;4944312;28;20361;-69
2023/08/08 02:04:20;;;;;;;;;;;;;;;10.48;52.81;95463.88;4943017;28;20446;-69
2023/08/08 02:06:45;;;;;;;;;;;;;;;10.51;52.10;95467.19;4943604;28;19926;-70
2023/08/08 02:09:10;;;;;;;;;;;;;;;10.41;51.50;95470.13;4940824;28;19930;-69
2023/08/08 02:11:36;;;;;;;;;;;;;;;10.42;51.48;95469.09;4943056;28;19924;-69
2023/08/08 02:14:01;;;;;;;;;;;;;;;10.48;51.85;95473.72;4943380;28;19926;-68
2023/08/08 02:16:26;;;;;;;;;;;;;;;10.57;51.79;95469.16;4942968;28;19991;-70
2023/08/08 02:18:51;;;;;;;;;;;;;;;10.66;51.77;95464.53;4943165;28;20038;-70
2023/08/08 02:21:17;;;;;;;;;;;;;;;10.67;51.55;95466.22;4942234;28;20298;-70
2023/08/08 02:23:42;;;;;;;;;;;;;;;10.56;51.55;95470.97;4943369;28;19926;-68
2023/08/08 02:26:07;;;;;;;;;;;;;;;10.57;52.21;95466.47;4942606;28;19922;-69
2023/08/08 02:28:32;;;;;;;;;;;;;;;10.67;51.76;95467.03;4942474;28;20548;-69
2023/08/08 02:30:58;;;;;;;;;;;;;;;10.70;51.78;95458.69;4944251;29;19918;-69
2023/08/08 02:33:23;;;;;;;;;;;;;;;10.77;51.41;95465.94;4941200;28;19958;-69
2023/08/08 02:35:48;;;;;;;;;;;;;;;10.60;51.98;95476.75;4942909;29;19933;-70
2023/08/08 02:38:13;;;;;;;;;;;;;;;10.71;51.59;95473.63;4943233;28;20102;-72
2023/08/08 02:40:38;;;;;;;;;;;;;;;10.75;51.15;95479.44;4942405;28;20334;-69
2023/08/08 02:43:04;;;;;;;;;;;;;;;10.56;51.73;95472.78;4941277;29;19941;-68
2023/08/08 02:45:29;;;;;;;;;;;;;;;10.33;51.97;95466.53;4941620;28;19926;-69
2023/08/08 02:47:54;;;;;;;;;;;;;;;10.41;51.62;95472.78;4943962;29;19966;-69
2023/08/08 02:50:20;;;;;;;;;;;;;;;10.13;52.17;95463.53;4941432;28;19922;-69
2023/08/08 02:52:45;;;;;;;;;;;;;;;10.18;52.30;95463.00;4942676;28;19922;-69
2023/08/08 02:55:10;;;;;;;;;;;;;;;10.12;52.28;95461.88;4943385;28;19915;-69
2023/08/08 02:57:35;;;;;;;;;;;;;;;9.62;53.13;95469.34;4943053;28;20390;-70
2023/08/08 03:00:01;;;;;;;;;;;;;;;9.44;54.09;95457.16;4940997;29;19973;-69
2023/08/08 03:02:26;;;;;;;;;;;;;;;9.64;53.63;95457.53;4941151;28;19932;-70
2023/08/08 03:04:51;;;;;;;;;;;;;;;8.77;55.69;95457.41;4942455;28;19938;-69
2023/08/08 03:07:16;;;;;;;;;;;;;;;9.55;54.27;95454.09;4943263;29;19929;-69
2023/08/08 03:09:41;;;;;;;;;;;;;;;9.63;53.75;95453.25;4936584;28;19935;-70
2023/08/08 03:12:07;;;;;;;;;;;;;;;9.52;54.09;95459.75;4943183;29;20171;-70
2023/08/08 03:14:33;;;;;;;;;;;;;;;9.13;54.44;95450.00;4942783;28;20031;-70
2023/08/08 03:16:58;;;;;;;;;;;;;;;9.38;54.51;95455.22;4942835;28;19933;-69
2023/08/08 03:19:24;;;;;;;;;;;;;;;9.40;53.90;95453.19;4943077;29;19926;-68
2023/08/08 03:21:49;;;;;;;;;;;;;;;9.05;55.10;95454.34;4942222;28;20580;-69
2023/08/08 03:24:14;;;;;;;;;;;;;;;9.16;54.84;95447.84;4941711;29;20315;-70
2023/08/08 03:26:39;;;;;;;;;;;;;;;9.19;55.20;95454.63;4942283;28;20013;-69
2023/08/08 03:29:04;;;;;;;;;;;;;;;9.30;54.62;95448.94;4941898;28;19926;-69
2023/08/08 03:31:30;;;;;;;;;;;;;;;9.42;54.13;95448.53;4943391;28;20017;-69
2023/08/08 03:33:55;;;;;;;;;;;;;;;9.38;53.98;95436.63;4941703;28;19933;-72
2023/08/08 03:36:20;;;;;;;;;;;;;;;9.06;54.59;95441.91;4943264;29;19953;-71
2023/08/08 03:38:46;;;;;;;;;;;;;;;9.14;54.39;95443.69;4941616;28;19971;-70
2023/08/08 03:41:11;;;;;;;;;;;;;;;9.08;54.58;95447.88;4940001;28;19923;-69
2023/08/08 03:43:37;;;;;;;;;;;;;;;9.08;54.26;95442.56;4942818;28;19922;-69
2023/08/08 03:46:02;;;;;;;;;;;;;;;9.04;53.96;95439.41;4942339;28;19923;-70
2023/08/08 03:48:27;;;;;;;;;;;;;;;9.06;53.84;95440.09;4942051;28;19923;-70
2023/08/08 03:50:52;;;;;;;;;;;;;;;8.90;53.52;95443.59;4942711;28;19941;-71
2023/08/08 03:53:18;;;;;;;;;;;;;;;8.83;54.42;95434.66;4941667;28;19930;-69
2023/08/08 03:55:43;;;;;;;;;;;;;;;8.75;54.71;95432.03;4942728;28;19929;-71
2023/08/08 03:58:08;;;;;;;;;;;;;;;8.71;54.69;95431.56;4942042;28;19918;-70
2023/08/08 04:00:33;;;;;;;;;;;;;;;8.81;54.09;95432.16;4941429;28;19929;-71
2023/08/08 04:02:59;;;;;;;;;;;;;;;8.75;54.46;95429.38;4942315;29;19934;-69
2023/08/08 04:05:24;;;;;;;;;;;;;;;8.65;53.68;95432.22;4942033;28;20295;-69
2023/08/08 04:07:49;;;;;;;;;;;;;;;8.73;53.87;95429.53;4938723;29;20010;-69
2023/08/08 04:10:14;;;;;;;;;;;;;;;8.59;53.87;95438.19;4939981;28;19958;-69
2023/08/08 04:12:40;;;;;;;;;;;;;;;8.67;53.99;95428.41;4942207;28;19938;-69
2023/08/08 04:15:05;;;;;;;;;;;;;;;8.63;54.35;95434.22;4942494;28;19925;-70
2023/08/08 04:17:30;;;;;;;;;;;;;;;8.36;54.57;95430.97;4942020;28;19939;-70
2023/08/08 04:19:56;;;;;;;;;;;;;;;8.46;54.65;95423.66;4942255;29;20411;-69
2023/08/08 04:22:21;;;;;;;;;;;;;;;8.40;54.94;95425.16;4939640;28;20364;-69
2023/08/08 04:24:47;;;;;;;;;;;;;;;8.35;55.27;95424.00;4941606;28;20063;-69
2023/08/08 04:27:12;;;;;;;;;;;;;;;8.39;55.13;95423.50;4941493;29;20464;-72
2023/08/08 04:29:37;;;;;;;;;;;;;;;8.49;54.90;95425.97;4941326;28;20483;-69
2023/08/08 04:32:03;;;;;;;;;;;;;;;8.54;54.60;95418.31;4941755;29;19946;-69
2023/08/08 04:34:28;;;;;;;;;;;;;;;8.52;55.28;95422.97;4940835;28;19925;-70
2023/08/08 04:36:53;;;;;;;;;;;;;;;8.32;55.85;95427.00;4940961;28;19954;-68
2023/08/08 04:39:18;;;;;;;;;;;;;;;8.42;55.68;95432.94;4941106;28;19937;-69
2023/08/08 04:41:43;;;;;;;;;;;;;;;8.67;55.11;95425.75;4938847;28;20580;-69
2023/08/08 04:44:09;;;;;;;;;;;;;;;8.57;54.82;95430.44;4941911;28;20112;-70
2023/08/08 04:46:34;;;;;;;;;;;;;;;8.61;55.19;95425.59;4941232;28;19922;-69
2023/08/08 04:48:59;;;;;;;;;;;;;;;8.68;54.79;95426.59;4939602;28;20390;-70
2023/08/08 04:51:24;;;;;;;;;;;;;;;8.83;54.55;95429.34;4941383;29;20276;-70
2023/08/08 04:53:50;;;;;;;;;;;;;;;8.84;54.61;95419.56;4940849;28;19919;-70
2023/08/08 04:56:15;;;;;;;;;;;;;;;8.93;54.68;95429.13;4939220;29;19918;-69
2023/08/08 04:58:40;;;;;;;;;;;;;;;8.97;54.31;95419.06;4941421;28;19934;-70
2023/08/08 05:01:07;;;;;;;;;;;;;;;9.05;54.20;95419.00;4940760;28;19949;-70
2023/08/08 05:03:32;;;;;;;;;;;;;;;8.79;54.77;95417.41;4941100;28;19965;-70
2023/08/08 05:05:59;;;;;;;;;;;;;;;9.10;54.62;95419.31;4941550;28;19954;-70
2023/08/08 05:08:24;;;;;;;;;;;;;;;9.15;54.52;95416.13;4940739;28;19922;-70
2023/08/08 05:10:49;;;;;;;;;;;;;;;8.97;54.79;95414.53;4939599;28;19960;-69
2023/08/08 05:13:14;;;;;;;;;;;;;;;9.25;54.42;95421.25;4940023;28;19918;-70
2023/08/08 05:15:39;;;;;;;;;;;;;;;9.47;54.17;95419.59;4941107;28;19923;-69
2023/08/08 05:18:05;;;;;;;;;;;;;;;9.54;53.99;95412.59;4940995;28;19929;-69
2023/08/08 05:20:30;;;;;;;;;;;;;;;9.33;54.57;95413.22;4940444;28;19974;-68
2023/08/08 05:22:55;;;;;;;;;;;;;;;9.54;53.94;95409.09;4939834;28;19927;-70
2023/08/08 05:25:20;;;;;;;;;;;;;;;9.46;54.26;95407.34;4940557;28;19922;-69
2023/08/08 05:27:46;;;;;;;;;;;;;;;9.62;53.93;95402.91;4941265;28;19938;-70
2023/08/08 05:30:12;;;;;;;;;;;;;;;9.22;55.31;95405.63;4940957;28;19918;-70
2023/08/08 05:32:37;;;;;;;;;;;;;;;9.58;54.36;95405.91;4940612;28;20400;-68
2023/08/08 05:35:04;;;;;;;;;;;;;;;9.21;55.46;95410.13;4940613;29;20081;-68
2023/08/08 05:37:29;;;;;;;;;;;;;;;9.27;54.64;95411.25;4939658;28;20001;-70
2023/08/08 05:39:54;;;;;;;;;;;;;;;9.19;56.07;95406.81;4940197;28;20126;-70
2023/08/08 05:42:20;;;;;;;;;;;;;;;9.28;55.39;95405.75;4936121;28;19927;-70
2023/08/08 05:44:45;;;;;;;;;;;;;;;9.42;54.63;95404.19;4940312;28;20020;-69
2023/08/08 05:47:10;;;;;;;;;;;;;;;9.60;54.66;95392.44;4941567;28;19966;-73
2023/08/08 05:49:35;;;;;;;;;;;;;;;9.41;54.42;95404.34;4940570;28;19922;-70
2023/08/08 05:52:01;;;;;;;;;;;;;;;9.59;54.38;95402.25;4940798;28;19945;-69
2023/08/08 05:54:26;;;;;;;;;;;;;;;9.22;54.85;95411.78;4940047;28;19922;-71
2023/08/08 05:56:51;;;;;;;;;;;;;;;9.47;55.46;95416.94;4939709;28;20587;-69
2023/08/08 05:59:16;;;;;;;;;;;;;;;8.95;56.35;95409.41;4940055;29;20712;-69
2023/08/08 06:01:42;;;;;;;;;;;;;;;8.95;56.12;95404.09;4940175;28;20419;-70
2023/08/08 06:04:07;;;;;;;;;;;;;;;8.26;57.69;95413.41;4940411;28;20522;-72
2023/08/08 06:06:33;;;;;;;;;;;;;;;8.71;56.32;95415.63;4939532;28;20320;-70
2023/08/08 06:08:58;;;;;;;;;;;;;;;8.10;57.21;95416.09;4938527;28;19966;-72
2023/08/08 06:11:23;;;;;;;;;;;;;;;9.00;56.11;95414.22;4940240;29;19957;-72
2023/08/08 06:13:48;;;;;;;;;;;;;;;8.84;56.49;95420.38;4940293;28;19975;-69
2023/08/08 06:16:14;;;;;;;;;;;;;;;8.63;56.28;95419.13;4940503;29;20360;-70
2023/08/08 06:18:40;;;;;;;;;;;;;;;9.17;56.13;95414.13;4940414;28;20054;-70
2023/08/08 06:21:05;;;;;;;;;;;;;;;9.55;54.00;95413.41;4939614;28;20010;-73
2023/08/08 06:23:30;;;;;;;;;;;;;;;9.80;53.88;95414.03;4940332;29;19954;-70
2023/08/08 06:25:55;;;;;;;;;;;;;;;8.92;56.24;95416.88;4939443;28;19942;-69
2023/08/08 06:28:20;;;;;;;;;;;;;;;8.96;55.65;95418.22;4939558;28;19938;-71
2023/08/08 06:30:46;;;;;;;;;;;;;;;9.61;55.90;95426.00;4940406;28;19969;-72
2023/08/08 06:33:11;;;;;;;;;;;;;;;9.80;55.08;95416.72;4940662;28;20608;-72
2023/08/08 06:35:36;;;;;;;;;;;;;;;9.44;55.29;95423.44;4940957;29;19926;-71
2023/08/08 06:38:02;;;;;;;;;;;;;;;9.66;54.64;95426.28;4943450;28;19925;-72
2023/08/08 06:40:28;;;;;;;;;;;;;;;10.31;53.80;95425.97;4943964;28;19942;-72
2023/08/08 06:42:53;;;;;;;;;;;;;;;9.90;54.20;95428.94;4942769;29;20404;-72
2023/08/08 06:45:18;;;;;;;;;;;;;;;9.67;54.33;95433.28;4943810;28;20493;-70
2023/08/08 06:47:44;;;;;;;;;;;;;;;9.37;55.48;95434.94;4944109;29;19922;-70
2023/08/08 06:50:09;;;;;;;;;;;;;;;9.44;55.52;95435.91;4942562;28;20029;-72
2023/08/08 06:52:35;;;;;;;;;;;;;;;9.83;54.60;95434.16;4943041;28;19923;-69
2023/08/08 06:55:00;;;;;;;;;;;;;;;9.56;54.71;95433.69;4943983;28;19930;-71
2023/08/08 06:57:25;;;;;;;;;;;;;;;9.57;55.00;95427.34;4943515;28;19981;-73
2023/08/08 06:59:52;;;;;;;;;;;;;;;9.72;54.45;95427.41;4940696;29;20778;-73
2023/08/08 07:02:20;;;;;;;;;;;;;;;9.61;54.65;95423.34;4940980;28;20481;-71
2023/08/08 07:04:46;;;;;;;;;;;;;;;10.04;54.30;95420.19;4941919;28;19923;-74
2023/08/08 07:07:11;;;;;;;;;;;;;;;9.78;53.88;95420.56;4943065;29;20403;-71
2023/08/08 07:09:37;;;;;;;;;;;;;;;9.56;54.22;95429.16;4939963;28;20045;-72
2023/08/08 07:12:03;;;;;;;;;;;;;;;9.76;54.41;95423.38;4942888;28;20020;-72
2023/08/08 07:14:28;;;;;;;;;;;;;;;9.76;53.34;95428.69;4938579;28;19985;-72
2023/08/08 07:16:53;;;;;;;;;;;;;;;9.93;54.01;95428.59;4940663;28;19922;-71
2023/08/08 07:19:19;;;;;;;;;;;;;;;9.44;54.88;95433.25;4939790;29;19927;-71
2023/08/08 07:21:44;;;;;;;;;;;;;;;9.31;56.40;95421.34;4939181;28;19919;-72
2023/08/08 07:24:09;;;;;;;;;;;;;;;9.51;55.52;95431.53;4939436;29;20120;-71
2023/08/08 07:26:35;;;;;;;;;;;;;;;10.00;54.09;95415.41;4936713;28;20678;-71
2023/08/08 07:29:00;;;;;;;;;;;;;;;10.51;53.10;95424.63;4935067;28;19961;-72
2023/08/08 07:31:25;;;;;;;;;;;;;;;10.17;54.27;95426.75;4943419;29;19946;-73
2023/08/08 07:33:51;;;;;;;;;;;;;;;10.21;54.08;95428.06;4924432;29;19918;-72
2023/08/08 07:36:16;;;;;;;;;;;;;;;10.15;54.13;95432.25;4939095;28;19958;-71
2023/08/08 07:38:41;;;;;;;;;;;;;;;9.73;55.49;95429.06;4941333;28;19933;-71
2023/08/08 07:41:06;;;;;;;;;;;;;;;10.69;53.36;95426.91;4937274;28;19927;-72
2023/08/08 07:43:32;;;;;;;;;;;;;;;10.30;53.71;95429.63;4942959;29;19962;-72
2023/08/08 07:45:57;;;;;;;;;;;;;;;10.12;54.30;95418.47;4941294;28;19968;-71
2023/08/08 07:48:22;;;;;;;;;;;;;;;10.00;55.41;95421.56;4934570;29;19972;-73
2023/08/08 07:50:47;;;;;;;;;;;;;;;10.13;55.09;95423.63;4941676;28;20474;-70
2023/08/08 07:53:13;;;;;;;;;;;;;;;9.95;55.01;95429.22;4941891;28;19922;-72
2023/08/08 07:55:38;;;;;;;;;;;;;;;9.69;55.96;95419.81;4941938;29;19922;-73
2023/08/08 07:58:03;;;;;;;;;;;;;;;9.62;55.87;95424.97;4941898;28;19942;-71
2023/08/08 08:00:28;;;;;;;;;;;;;;;9.91;56.48;95417.28;4939453;28;20010;-70
2023/08/08 08:02:54;;;;;;;;;;;;;;;8.93;58.09;95429.13;4942135;28;19937;-71
2023/08/08 08:05:19;;;;;;;;;;;;;;;10.37;55.03;95411.09;4940523;28;19933;-73
2023/08/08 08:07:44;;;;;;;;;;;;;;;9.97;56.07;95416.59;4937147;28;19978;-71
2023/08/08 08:10:10;;;;;;;;;;;;;;;9.87;55.72;95416.00;4934247;28;20372;-70
2023/08/08 08:12:35;;;;;;;;;;;;;;;10.07;55.08;95411.88;4938992;28;20095;-71
2023/08/08 08:15:00;;;;;;;;;;;;;;;10.87;53.24;95413.22;4940943;29;20546;-69
2023/08/08 08:17:27;;;;;;;;;;;;;;;10.94;52.88;95413.31;4941532;28;20019;-69
2023/08/08 08:19:53;;;;;;;;;;;;;;;10.64;53.68;95419.47;4941181;29;19930;-70
2023/08/08 08:22:18;;;;;;;;;;;;;;;10.68;53.38;95425.28;4936696;29;19930;-71
2023/08/08 08:24:43;;;;;;;;;;;;;;;10.23;54.95;95415.38;4940746;28;19930;-70
2023/08/08 08:27:08;;;;;;;;;;;;;;;10.39;54.45;95410.91;4939787;29;20551;-70
2023/08/08 08:29:34;;;;;;;;;;;;;;;10.28;54.96;95407.72;4941289;28;20512;-70
2023/08/08 08:31:59;;;;;;;;;;;;;;;10.34;55.58;95414.94;4938859;28;19934;-72
2023/08/08 08:34:24;;;;;;;;;;;;;;;11.10;52.86;95412.31;4934686;28;19935;-70
2023/08/08 08:36:49;;;;;;;;;;;;;;;11.48;51.63;95411.28;4938676;28;19930;-69
2023/08/08 08:39:15;;;;;;;;;;;;;;;11.59;52.04;95408.13;4941615;28;19922;-71
2023/08/08 08:41:40;;;;;;;;;;;;;;;11.25;52.94;95402.44;4938894;28;19973;-71
2023/08/08 08:44:08;;;;;;;;;;;;;;;11.35;52.85;95410.13;4941351;29;20302;-70
2023/08/08 08:46:34;;;;;;;;;;;;;;;10.88;54.66;95414.88;4938626;28;19970;-70
2023/08/08 08:48:59;;;;;;;;;;;;;;;10.86;53.54;95415.06;4939829;28;20012;-69
2023/08/08 08:51:25;;;;;;;;;;;;;;;11.05;53.13;95415.50;4933439;29;19926;-69
2023/08/08 08:53:50;;;;;;;;;;;;;;;11.13;54.45;95415.41;4937880;28;19937;-70
2023/08/08 08:56:16;;;;;;;;;;;;;;;10.90;53.30;95433.31;4940035;28;19957;-69
2023/08/08 08:58:42;;;;;;;;;;;;;;;10.99;53.16;95411.72;4939880;28;19968;-71
2023/08/08 09:01:07;;;;;;;;;;;;;;;11.98;50.79;95415.88;4940305;28;19926;-71
2023/08/08 09:03:32;;;;;;;;;;;;;;;11.16;52.70;95405.41;4939435;29;20391;-72
2023/08/08 09:05:58;;;;;;;;;;;;;;;11.23;51.28;95401.81;4937016;28;20308;-70
2023/08/08 09:08:23;;;;;;;;;;;;;;;10.89;51.34;95411.22;4933394;29;19968;-71
2023/08/08 09:10:50;;;;;;;;;;;;;;;10.93;52.30;95406.31;4934972;28;20280;-71
2023/08/08 09:13:15;;;;;;;;;;;;;;;11.60;49.96;95412.44;4939997;28;19922;-70
2023/08/08 09:15:41;;;;;;;;;;;;;;;10.64;51.89;95410.66;4941030;29;19919;-70
2023/08/08 09:18:06;;;;;;;;;;;;;;;11.51;51.49;95405.59;4940758;28;19961;-70
2023/08/08 09:20:32;;;;;;;;;;;;;;;11.37;50.02;95409.97;4937253;28;20437;-69
2023/08/08 09:22:57;;;;;;;;;;;;;;;11.11;51.14;95408.63;4940553;29;19922;-70
2023/08/08 09:25:23;;;;;;;;;;;;;;;12.10;49.31;95401.03;4940447;28;20007;-70
2023/08/08 09:27:48;;;;;;;;;;;;;;;11.41;50.93;95408.56;4940555;29;19922;-70
2023/08/08 09:30:14;;;;;;;;;;;;;;;11.62;51.14;95405.09;4938295;28;19934;-70
2023/08/08 09:32:40;;;;;;;;;;;;;;;11.42;51.89;95404.06;4938289;28;20370;-70
2023/08/08 09:35:09;;;;;;;;;;;;;;;11.33;50.65;95398.88;4940442;28;19930;-68
2023/08/08 09:37:34;;;;;;;;;;;;;;;11.41;48.57;95407.72;4930827;28;20124;-69
2023/08/08 09:40:00;;;;;;;;;;;;;;;10.97;50.93;95408.44;4933225;29;20458;-70
2023/08/08 09:42:26;;;;;;;;;;;;;;;11.24;49.96;95395.47;4937942;28;19922;-69
2023/08/08 09:44:51;;;;;;;;;;;;;;;10.26;51.28;95383.09;4940725;28;20418;-68
2023/08/08 09:47:16;;;;;;;;;;;;;;;10.29;49.85;95388.06;4937153;28;19970;-70
2023/08/08 09:49:41;;;;;;;;;;;;;;;10.48;51.61;95386.69;4937836;28;19966;-70
2023/08/08 09:52:07;;;;;;;;;;;;;;;11.40;52.15;95388.25;4935081;29;19962;-69
2023/08/08 09:54:32;;;;;;;;;;;;;;;11.50;48.69;95377.28;4940727;28;19933;-70
2023/08/08 09:56:57;;;;;;;;;;;;;;;11.25;47.67;95380.28;4939824;28;20596;-69
2023/08/08 09:59:23;;;;;;;;;;;;;;;11.42;48.50;95380.09;4939986;29;20034;-70
2023/08/08 10:01:48;;;;;;;;;;;;;;;10.67;50.03;95376.50;4937644;28;19941;-69
2023/08/08 10:04:13;;;;;;;;;;;;;;;10.71;50.16;95374.31;4933758;28;19930;-70
2023/08/08 10:06:38;;;;;;;;;;;;;;;10.47;50.10;95386.88;4937128;28;20024;-69
2023/08/08 10:09:04;;;;;;;;;;;;;;;11.07;49.45;95378.84;4930551;28;19974;-69
2023/08/08 10:11:29;;;;;;;;;;;;;;;11.20;50.37;95380.88;4937288;29;19918;-69
2023/08/08 10:13:54;;;;;;;;;;;;;;;11.21;49.31;95384.34;4935814;28;20482;-69
2023/08/08 10:16:20;;;;;;;;;;;;;;;11.28;48.91;95390.59;4932632;28;19972;-69
2023/08/08 10:18:46;;;;;;;;;;;;;;;11.53;48.97;95376.91;4932028;29;20394;-70
2023/08/08 10:21:11;;;;;;;;;;;;;;;12.25;48.40;95382.28;4934629;28;20009;-69
2023/08/08 10:23:37;;;;;;;;;;;;;;;12.52;47.36;95374.41;4938607;29;19922;-69
2023/08/08 10:26:02;;;;;;;;;;;;;;;13.42;45.77;95377.28;4936064;28;19953;-70
2023/08/08 10:28:27;;;;;;;;;;;;;;;12.62;46.47;95381.25;4939479;28;20378;-71
2023/08/08 10:30:56;;;;;;;;;;;;;;;12.96;47.45;95376.09;4935486;29;19923;-71
2023/08/08 10:33:25;;;;;;;;;;;;;;;12.76;45.74;95382.16;4946311;28;19922;-80
2023/08/08 10:36:06;;;;;;;;;;;;;;;12.54;44.98;95377.72;4958754;28;19930;-80
2023/08/08 10:38:46;;;;;;;;;;;;;;;12.09;46.37;95387.88;4931284;29;19923;-80
2023/08/08 10:41:12;;;;;;;;;;;;;;;11.14;47.67;95386.94;4949462;28;20009;-80
2023/08/08 10:43:37;;;;;;;;;;;;;;;11.95;48.83;95384.25;4956081;29;19941;-80
2023/08/08 10:46:03;;;;;;;;;;;;;;;11.53;47.68;95379.59;4949083;28;20462;-80
2023/08/08 10:48:28;;;;;;;;;;;;;;;11.60;48.33;95384.97;4950016;28;19926;-80
2023/08/08 10:51:00;;;;;;;;;;;;;;;11.92;45.27;95389.97;4950078;28;19910;-80
2023/08/08 10:53:26;;;;;;;;;;;;;;;11.84;45.06;95390.94;4944262;28;19922;-81
2023/08/08 10:56:01;;;;;;;;;;;;;;;10.96;46.83;95382.84;4950210;28;20323;-80
2023/08/08 10:58:36;;;;;;;;;;;;;;;11.29;47.58;95415.41;4954884;28;20407;-80
2023/08/08 11:01:01;;;;;;;;;;;;;;;11.32;46.91;95404.38;4952204;28;20348;-78
2023/08/08 11:03:27;;;;;;;;;;;;;;;11.16;46.08;95392.09;4945401;29;19962;-80
2023/08/08 11:05:52;;;;;;;;;;;;;;;10.88;47.61;95391.72;4935252;29;20009;-75
2023/08/08 11:08:17;;;;;;;;;;;;;;;10.92;46.35;95413.50;4943148;28;19925;-81
2023/08/08 11:10:43;;;;;;;;;;;;;;;11.07;47.20;95394.84;4928454;29;19934;-80
2023/08/08 11:13:08;;;;;;;;;;;;;;;11.00;46.90;95409.91;4927435;29;20407;-80
2023/08/08 11:15:33;;;;;;;;;;;;;;;11.38;48.07;95415.09;4947453;29;19918;-79
2023/08/08 11:17:59;;;;;;;;;;;;;;;10.70;46.40;95416.09;4950774;28;19965;-81
2023/08/08 11:20:24;;;;;;;;;;;;;;;10.47;47.55;95397.50;4951020;28;19922;-80
2023/08/08 11:22:53;;;;;;;;;;;;;;;10.67;47.03;95403.13;4946082;29;20080;-79
2023/08/08 11:25:18;;;;;;;;;;;;;;;10.42;48.22;95400.75;4933638;29;19927;-79
2023/08/08 11:27:53;;;;;;;;;;;;;;;10.44;48.59;95404.03;4948210;28;19945;-79
2023/08/08 11:30:18;;;;;;;;;;;;;;;10.16;49.65;95398.53;4954148;28;20052;-79
2023/08/08 11:32:44;;;;;;;;;;;;;;;10.40;48.28;95404.59;4939523;28;19925;-79
2023/08/08 11:35:10;;;;;;;;;;;;;;;10.34;46.10;95411.47;4944678;28;19910;-79
2023/08/08 11:37:35;;;;;;;;;;;;;;;10.31;47.04;95420.66;4948085;28;19926;-79
2023/08/08 11:40:00;;;;;;;;;;;;;;;11.33;47.83;95387.38;4946534;29;19954;-79
2023/08/08 11:42:25;;;;;;;;;;;;;;;11.59;45.60;95392.13;4942203;28;20497;-80
2023/08/08 11:44:51;;;;;;;;;;;;;;;12.04;43.78;95380.44;4945455;28;20165;-80
2023/08/08 11:47:16;;;;;;;;;;;;;;;11.92;44.86;95387.28;4933104;29;20017;-80
2023/08/08 11:49:42;;;;;;;;;;;;;;;12.37;45.09;95398.56;4943657;28;20008;-80
2023/08/08 11:52:07;;;;;;;;;;;;;;;11.82;44.22;95382.28;4943920;28;19934;-80
2023/08/08 11:54:33;;;;;;;;;;;;;;;10.93;45.80;95396.50;4941385;28;19922;-80
2023/08/08 11:56:58;;;;;;;;;;;;;;;11.18;46.21;95404.22;4943456;28;20390;-80
2023/08/08 11:59:23;;;;;;;;;;;;;;;11.21;45.68;95392.34;4923644;29;19930;-80
2023/08/08 12:01:48;;;;;;;;;;;;;;;10.65;46.33;95409.66;4942940;28;19942;-80
2023/08/08 12:04:14;;;;;;;;;;;;;;;10.42;47.51;95397.25;4926172;29;19914;-80
2023/08/08 12:06:39;;;;;;;;;;;;;;;9.89;48.19;95393.53;4940510;29;19926;-80
2023/08/08 12:09:06;;;;;;;;;;;;;;;9.89;48.77;95395.41;4942355;28;20204;-79
2023/08/08 12:11:33;;;;;;;;;;;;;;;10.49;47.88;95387.53;4944184;28;20388;-80
2023/08/08 12:13:59;;;;;;;;;;;;;;;10.84;47.18;95406.44;4921460;28;19992;-80
2023/08/08 12:16:27;;;;;;;;;;;;;;;10.70;47.13;95393.94;4923795;29;19959;-80
2023/08/08 12:18:52;;;;;;;;;;;;;;;11.08;46.60;95404.47;4939796;28;20538;-80
2023/08/08 12:21:17;;;;;;;;;;;;;;;10.75;46.47;95392.38;4939462;29;20009;-80
2023/08/08 12:23:42;;;;;;;;;;;;;;;10.61;48.27;95393.22;4942589;29;19934;-80
2023/08/08 12:26:08;;;;;;;;;;;;;;;10.83;47.29;95390.63;4942237;28;19923;-80
2023/08/08 12:28:33;;;;;;;;;;;;;;;10.70;46.98;95385.97;4943208;28;19915;-80
2023/08/08 12:30:59;;;;;;;;;;;;;;;10.98;46.92;95383.44;4949101;28;20295;-80
2023/08/08 12:33:24;;;;;;;;;;;;;;;10.61;47.95;95388.72;4944192;28;19922;-80
2023/08/08 12:35:49;;;;;;;;;;;;;;;10.86;47.80;95398.25;4944670;28;19918;-80
2023/08/08 12:38:15;;;;;;;;;;;;;;;10.17;48.78;95411.59;4925421;29;19926;-80
2023/08/08 12:40:40;;;;;;;;;;;;;;;10.03;49.17;95394.59;4940468;28;20013;-80
2023/08/08 12:43:05;;;;;;;;;;;;;;;10.05;49.26;95405.91;4943165;28;19913;-79